sensor_id;sensor_type;location;lat;lon;timestamp;temperature;humidity
17762;DHT22;9005;48.838;10.112;2023-03-23T00:01:26;10.40;99.90
17762;DHT22;9005;48.838;10.112;2023-03-23T00:03:58;10.40;99.90
17762;DHT22;9005;48.838;10.112;2023-03-23T00:06:27;10.50;99.90
17762;DHT22;9005;48.838;10.112;2023-03-23T00:09:00;10.50;99.90
17762;DHT22;9005;48.838;10.112;2023-03-23T00:11:30;10.50;99.90
17762;DHT22;9005;48.838;10.112;2023-03-23T00:13:58;10.50;99.90
17762;DHT22;9005;48.838;10.112;2023-03-23T00:16:27;10.60;99.90
17762;DHT22;9005;48.838;10.112;2023-03-23T00:18:58;10.60;99.90
17762;DHT22;9005;48.838;10.112;2023-03-23T00:21:26;10.60;99.90
17762;DHT22;9005;48.838;10.112;2023-03-23T00:23:59;10.70;99.90
17762;DHT22;9005;48.838;10.112;2023-03-23T00:26:26;10.80;99.90
17762;DHT22;9005;48.838;10.112;2023-03-23T00:28:53;10.90;99.90
17762;DHT22;9005;48.838;10.112;2023-03-23T00:31:20;11.00;99.90
17762;DHT22;9005;48.838;10.112;2023-03-23T00:33:47;11.10;99.90
17762;DHT22;9005;48.838;10.112;2023-03-23T00:36:15;11.10;99.90
17762;DHT22;9005;48.838;10.112;2023-03-23T00:41:12;11.30;99.90
17762;DHT22;9005;48.838;10.112;2023-03-23T00:43:40;11.30;99.90
17762;DHT22;9005;48.838;10.112;2023-03-23T00:46:07;11.30;99.90
17762;DHT22;9005;48.838;10.112;2023-03-23T00:48:36;11.30;99.90
17762;DHT22;9005;48.838;10.112;2023-03-23T00:51:06;11.40;99.90
17762;DHT22;9005;48.838;10.112;2023-03-23T00:53:37;11.40;99.90
17762;DHT22;9005;48.838;10.112;2023-03-23T00:56:05;11.40;99.90
17762;DHT22;9005;48.838;10.112;2023-03-23T00:58:32;11.40;99.90
17762;DHT22;9005;48.838;10.112;2023-03-23T01:00:59;11.40;99.90
17762;DHT22;9005;48.838;10.112;2023-03-23T01:03:26;11.40;99.90
17762;DHT22;9005;48.838;10.112;2023-03-23T01:05:54;11.40;99.90
17762;DHT22;9005;48.838;10.112;2023-03-23T01:08:21;11.40;99.90
17762;DHT22;9005;48.838;10.112;2023-03-23T01:10:50;11.40;99.90
17762;DHT22;9005;48.838;10.112;2023-03-23T01:13:19;11.40;99.90
17762;DHT22;9005;48.838;10.112;2023-03-23T01:15:48;11.40;99.90
17762;DHT22;9005;48.838;10.112;2023-03-23T01:18:14;11.40;99.90
17762;DHT22;9005;48.838;10.112;2023-03-23T01:20:41;11.30;99.90
17762;DHT22;9005;48.838;10.112;2023-03-23T01:23:08;11.20;99.90
17762;DHT22;9005;48.838;10.112;2023-03-23T01:25:36;11.20;99.90
17762;DHT22;9005;48.838;10.112;2023-03-23T01:28:04;11.20;99.90
17762;DHT22;9005;48.838;10.112;2023-03-23T01:30:31;11.10;99.90
17762;DHT22;9005;48.838;10.112;2023-03-23T01:32:57;11.10;99.90
17762;DHT22;9005;48.838;10.112;2023-03-23T01:35:24;11.10;99.90
17762;DHT22;9005;48.838;10.112;2023-03-23T01:37:51;11.10;99.90
17762;DHT22;9005;48.838;10.112;2023-03-23T01:40:18;11.10;99.90
17762;DHT22;9005;48.838;10.112;2023-03-23T01:42:45;11.10;99.90
17762;DHT22;9005;48.838;10.112;2023-03-23T01:45:24;11.10;99.90
17762;DHT22;9005;48.838;10.112;2023-03-23T01:47:56;11.10;99.90
17762;DHT22;9005;48.838;10.112;2023-03-23T01:50:25;11.10;99.90
17762;DHT22;9005;48.838;10.112;2023-03-23T01:52:54;11.10;99.90
17762;DHT22;9005;48.838;10.112;2023-03-23T01:55:25;11.10;99.90
17762;DHT22;9005;48.838;10.112;2023-03-23T01:57:54;11.10;99.90
17762;DHT22;9005;48.838;10.112;2023-03-23T02:00:23;11.00;99.90
17762;DHT22;9005;48.838;10.112;2023-03-23T02:02:52;11.00;99.90
17762;DHT22;9005;48.838;10.112;2023-03-23T02:05:25;11.00;99.90
17762;DHT22;9005;48.838;10.112;2023-03-23T02:07:54;11.00;99.90
17762;DHT22;9005;48.838;10.112;2023-03-23T02:10:21;11.00;99.90
17762;DHT22;9005;48.838;10.112;2023-03-23T02:12:47;11.10;99.90
17762;DHT22;9005;48.838;10.112;2023-03-23T02:15:14;11.10;99.90
17762;DHT22;9005;48.838;10.112;2023-03-23T02:17:47;11.10;99.90
17762;DHT22;9005;48.838;10.112;2023-03-23T02:20:25;11.20;99.90
17762;DHT22;9005;48.838;10.112;2023-03-23T02:23:19;11.30;99.90
17762;DHT22;9005;48.838;10.112;2023-03-23T02:26:03;11.30;99.90
17762;DHT22;9005;48.838;10.112;2023-03-23T02:28:48;11.40;99.90
17762;DHT22;9005;48.838;10.112;2023-03-23T02:31:42;11.40;99.90
17762;DHT22;9005;48.838;10.112;2023-03-23T02:34:15;11.40;99.90
17762;DHT22;9005;48.838;10.112;2023-03-23T02:36:46;11.40;99.90
17762;DHT22;9005;48.838;10.112;2023-03-23T02:39:19;11.40;99.90
17762;DHT22;9005;48.838;10.112;2023-03-23T02:41:50;11.40;99.90
17762;DHT22;9005;48.838;10.112;2023-03-23T02:44:19;11.40;99.90
17762;DHT22;9005;48.838;10.112;2023-03-23T02:46:47;11.40;99.90
17762;DHT22;9005;48.838;10.112;2023-03-23T02:49:16;11.40;99.90
17762;DHT22;9005;48.838;10.112;2023-03-23T02:51:46;11.40;99.90
17762;DHT22;9005;48.838;10.112;2023-03-23T02:54:15;11.40;99.90
17762;DHT22;9005;48.838;10.112;2023-03-23T02:56:43;11.40;99.90
17762;DHT22;9005;48.838;10.112;2023-03-23T02:59:10;11.40;99.90
17762;DHT22;9005;48.838;10.112;2023-03-23T03:02:01;11.40;99.90
17762;DHT22;9005;48.838;10.112;2023-03-23T03:04:31;11.50;99.90
17762;DHT22;9005;48.838;10.112;2023-03-23T03:07:17;11.50;99.90
17762;DHT22;9005;48.838;10.112;2023-03-23T03:09:50;11.60;99.90
17762;DHT22;9005;48.838;10.112;2023-03-23T03:12:24;11.60;99.90
17762;DHT22;9005;48.838;10.112;2023-03-23T03:14:58;11.60;99.90
17762;DHT22;9005;48.838;10.112;2023-03-23T03:17:30;11.70;99.90
17762;DHT22;9005;48.838;10.112;2023-03-23T03:20:02;11.60;99.90
17762;DHT22;9005;48.838;10.112;2023-03-23T03:22:33;11.60;99.90
17762;DHT22;9005;48.838;10.112;2023-03-23T03:25:03;11.60;99.90
17762;DHT22;9005;48.838;10.112;2023-03-23T03:27:31;11.50;99.90
17762;DHT22;9005;48.838;10.112;2023-03-23T03:30:01;11.50;99.90
17762;DHT22;9005;48.838;10.112;2023-03-23T03:32:34;11.40;99.90
17762;DHT22;9005;48.838;10.112;2023-03-23T03:35:06;11.40;99.90
17762;DHT22;9005;48.838;10.112;2023-03-23T03:37:34;11.40;99.90
17762;DHT22;9005;48.838;10.112;2023-03-23T03:40:04;11.40;99.90
17762;DHT22;9005;48.838;10.112;2023-03-23T03:42:36;11.40;99.90
17762;DHT22;9005;48.838;10.112;2023-03-23T03:45:03;11.40;99.90
17762;DHT22;9005;48.838;10.112;2023-03-23T03:47:31;11.50;99.90
17762;DHT22;9005;48.838;10.112;2023-03-23T03:49:57;11.50;99.90
17762;DHT22;9005;48.838;10.112;2023-03-23T03:52:25;11.60;99.90
17762;DHT22;9005;48.838;10.112;2023-03-23T03:57:20;11.60;99.90
17762;DHT22;9005;48.838;10.112;2023-03-23T03:59:47;11.60;99.90
17762;DHT22;9005;48.838;10.112;2023-03-23T04:02:14;11.60;99.90
17762;DHT22;9005;48.838;10.112;2023-03-23T04:04:45;11.60;99.90
17762;DHT22;9005;48.838;10.112;2023-03-23T04:07:12;11.60;99.90
17762;DHT22;9005;48.838;10.112;2023-03-23T04:09:40;11.60;99.90
17762;DHT22;9005;48.838;10.112;2023-03-23T04:12:08;11.60;99.90
17762;DHT22;9005;48.838;10.112;2023-03-23T04:14:35;11.50;99.90
17762;DHT22;9005;48.838;10.112;2023-03-23T04:17:02;11.50;99.90
17762;DHT22;9005;48.838;10.112;2023-03-23T04:19:28;11.40;99.90
17762;DHT22;9005;48.838;10.112;2023-03-23T04:21:58;11.50;99.90
17762;DHT22;9005;48.838;10.112;2023-03-23T04:24:25;11.50;99.90
17762;DHT22;9005;48.838;10.112;2023-03-23T04:26:55;11.40;99.90
17762;DHT22;9005;48.838;10.112;2023-03-23T04:29:21;11.40;99.90
17762;DHT22;9005;48.838;10.112;2023-03-23T04:31:48;11.40;99.90
17762;DHT22;9005;48.838;10.112;2023-03-23T04:34:18;11.40;99.90
17762;DHT22;9005;48.838;10.112;2023-03-23T04:36:45;11.40;99.90
17762;DHT22;9005;48.838;10.112;2023-03-23T04:39:12;11.40;99.90
17762;DHT22;9005;48.838;10.112;2023-03-23T04:41:41;11.40;99.90
17762;DHT22;9005;48.838;10.112;2023-03-23T04:44:10;11.40;99.90
17762;DHT22;9005;48.838;10.112;2023-03-23T04:46:43;11.40;99.90
17762;DHT22;9005;48.838;10.112;2023-03-23T04:49:15;11.50;99.90
17762;DHT22;9005;48.838;10.112;2023-03-23T04:51:47;11.50;99.90
17762;DHT22;9005;48.838;10.112;2023-03-23T04:54:16;11.70;99.90
17762;DHT22;9005;48.838;10.112;2023-03-23T04:56:42;11.80;99.90
17762;DHT22;9005;48.838;10.112;2023-03-23T04:59:10;11.90;99.90
17762;DHT22;9005;48.838;10.112;2023-03-23T05:04:05;12.20;99.90
17762;DHT22;9005;48.838;10.112;2023-03-23T05:06:32;12.30;99.90
17762;DHT22;9005;48.838;10.112;2023-03-23T05:08:59;12.40;99.90
17762;DHT22;9005;48.838;10.112;2023-03-23T05:11:26;12.40;99.90
17762;DHT22;9005;48.838;10.112;2023-03-23T05:13:52;12.50;99.90
17762;DHT22;9005;48.838;10.112;2023-03-23T05:16:21;12.60;99.90
17762;DHT22;9005;48.838;10.112;2023-03-23T05:18:47;12.50;99.90
17762;DHT22;9005;48.838;10.112;2023-03-23T05:21:14;12.60;99.90
17762;DHT22;9005;48.838;10.112;2023-03-23T05:23:41;12.60;99.90
17762;DHT22;9005;48.838;10.112;2023-03-23T05:26:08;12.70;99.90
17762;DHT22;9005;48.838;10.112;2023-03-23T05:28:34;12.70;99.90
17762;DHT22;9005;48.838;10.112;2023-03-23T05:31:03;12.70;99.90
17762;DHT22;9005;48.838;10.112;2023-03-23T05:33:31;12.80;99.90
17762;DHT22;9005;48.838;10.112;2023-03-23T05:35:58;12.80;99.90
17762;DHT22;9005;48.838;10.112;2023-03-23T05:38:26;12.90;99.90
17762;DHT22;9005;48.838;10.112;2023-03-23T05:40:53;12.90;99.90
17762;DHT22;9005;48.838;10.112;2023-03-23T05:43:20;12.80;99.90
17762;DHT22;9005;48.838;10.112;2023-03-23T05:45:46;12.80;99.90
17762;DHT22;9005;48.838;10.112;2023-03-23T05:48:13;12.80;99.90
17762;DHT22;9005;48.838;10.112;2023-03-23T05:50:41;12.80;99.90
17762;DHT22;9005;48.838;10.112;2023-03-23T05:53:08;12.70;99.90
17762;DHT22;9005;48.838;10.112;2023-03-23T05:55:35;12.70;99.90
17762;DHT22;9005;48.838;10.112;2023-03-23T05:58:02;12.70;99.90
17762;DHT22;9005;48.838;10.112;2023-03-23T06:00:28;12.70;99.90
17762;DHT22;9005;48.838;10.112;2023-03-23T06:02:56;12.70;99.90
17762;DHT22;9005;48.838;10.112;2023-03-23T06:05:23;12.70;99.90
17762;DHT22;9005;48.838;10.112;2023-03-23T06:07:52;12.70;99.90
17762;DHT22;9005;48.838;10.112;2023-03-23T06:10:19;12.80;99.90
17762;DHT22;9005;48.838;10.112;2023-03-23T06:12:46;12.80;99.90
17762;DHT22;9005;48.838;10.112;2023-03-23T06:15:13;12.80;99.90
17762;DHT22;9005;48.838;10.112;2023-03-23T06:17:39;12.80;99.90
17762;DHT22;9005;48.838;10.112;2023-03-23T06:20:07;12.90;99.90
17762;DHT22;9005;48.838;10.112;2023-03-23T06:22:36;12.90;99.90
17762;DHT22;9005;48.838;10.112;2023-03-23T06:25:05;12.90;99.90
17762;DHT22;9005;48.838;10.112;2023-03-23T06:27:32;12.90;99.90
17762;DHT22;9005;48.838;10.112;2023-03-23T06:29:58;12.90;99.90
17762;DHT22;9005;48.838;10.112;2023-03-23T06:32:26;13.00;99.90
17762;DHT22;9005;48.838;10.112;2023-03-23T06:34:55;13.00;99.90
17762;DHT22;9005;48.838;10.112;2023-03-23T06:37:22;13.00;99.90
17762;DHT22;9005;48.838;10.112;2023-03-23T06:39:49;13.00;99.90
17762;DHT22;9005;48.838;10.112;2023-03-23T06:42:18;13.10;99.90
17762;DHT22;9005;48.838;10.112;2023-03-23T06:44:45;13.20;99.90
17762;DHT22;9005;48.838;10.112;2023-03-23T06:49:38;13.20;99.90
17762;DHT22;9005;48.838;10.112;2023-03-23T06:52:06;13.20;99.90
17762;DHT22;9005;48.838;10.112;2023-03-23T06:57:00;13.30;99.90
17762;DHT22;9005;48.838;10.112;2023-03-23T06:59:28;13.40;99.90
17762;DHT22;9005;48.838;10.112;2023-03-23T07:01:55;13.50;99.90
17762;DHT22;9005;48.838;10.112;2023-03-23T07:04:22;13.50;99.90
17762;DHT22;9005;48.838;10.112;2023-03-23T07:06:49;13.50;99.90
17762;DHT22;9005;48.838;10.112;2023-03-23T07:09:16;13.60;99.90
17762;DHT22;9005;48.838;10.112;2023-03-23T07:11:43;13.60;99.90
17762;DHT22;9005;48.838;10.112;2023-03-23T07:14:13;13.60;99.90
17762;DHT22;9005;48.838;10.112;2023-03-23T07:16:41;13.70;99.90
17762;DHT22;9005;48.838;10.112;2023-03-23T07:21:35;14.00;99.90
17762;DHT22;9005;48.838;10.112;2023-03-23T07:24:02;14.00;99.90
17762;DHT22;9005;48.838;10.112;2023-03-23T07:26:29;13.90;99.90
17762;DHT22;9005;48.838;10.112;2023-03-23T07:28:56;13.80;99.90
17762;DHT22;9005;48.838;10.112;2023-03-23T07:31:23;13.90;99.90
17762;DHT22;9005;48.838;10.112;2023-03-23T07:33:51;13.90;99.90
17762;DHT22;9005;48.838;10.112;2023-03-23T07:36:18;14.00;99.90
17762;DHT22;9005;48.838;10.112;2023-03-23T07:38:44;14.10;99.90
17762;DHT22;9005;48.838;10.112;2023-03-23T07:41:11;14.30;99.90
17762;DHT22;9005;48.838;10.112;2023-03-23T07:43:38;14.30;99.90
17762;DHT22;9005;48.838;10.112;2023-03-23T07:46:04;14.40;99.90
17762;DHT22;9005;48.838;10.112;2023-03-23T07:48:31;14.50;99.90
17762;DHT22;9005;48.838;10.112;2023-03-23T07:50:59;14.50;99.90
17762;DHT22;9005;48.838;10.112;2023-03-23T07:55:53;14.30;99.90
17762;DHT22;9005;48.838;10.112;2023-03-23T07:58:21;14.20;99.90
17762;DHT22;9005;48.838;10.112;2023-03-23T08:00:47;14.10;99.90
17762;DHT22;9005;48.838;10.112;2023-03-23T08:03:15;14.00;99.90
17762;DHT22;9005;48.838;10.112;2023-03-23T08:05:42;13.90;99.90
17762;DHT22;9005;48.838;10.112;2023-03-23T08:08:10;14.00;99.90
17762;DHT22;9005;48.838;10.112;2023-03-23T08:10:37;13.90;99.90
17762;DHT22;9005;48.838;10.112;2023-03-23T08:13:04;13.90;99.90
17762;DHT22;9005;48.838;10.112;2023-03-23T08:15:32;13.90;99.90
17762;DHT22;9005;48.838;10.112;2023-03-23T08:17:59;14.00;99.90
17762;DHT22;9005;48.838;10.112;2023-03-23T08:20:27;14.00;99.90
17762;DHT22;9005;48.838;10.112;2023-03-23T08:22:56;14.10;99.90
17762;DHT22;9005;48.838;10.112;2023-03-23T08:25:25;14.20;99.90
17762;DHT22;9005;48.838;10.112;2023-03-23T08:27:52;14.30;99.90
17762;DHT22;9005;48.838;10.112;2023-03-23T08:30:20;14.40;99.90
17762;DHT22;9005;48.838;10.112;2023-03-23T08:32:48;14.60;99.90
17762;DHT22;9005;48.838;10.112;2023-03-23T08:35:16;14.60;99.90
17762;DHT22;9005;48.838;10.112;2023-03-23T08:37:44;14.70;99.90
17762;DHT22;9005;48.838;10.112;2023-03-23T08:40:13;14.70;99.90
17762;DHT22;9005;48.838;10.112;2023-03-23T08:42:42;14.70;99.90
17762;DHT22;9005;48.838;10.112;2023-03-23T08:45:11;14.80;99.90
17762;DHT22;9005;48.838;10.112;2023-03-23T08:47:39;14.90;99.90
17762;DHT22;9005;48.838;10.112;2023-03-23T08:50:10;14.90;99.90
17762;DHT22;9005;48.838;10.112;2023-03-23T08:52:37;15.10;99.90
17762;DHT22;9005;48.838;10.112;2023-03-23T08:55:04;15.10;99.90
17762;DHT22;9005;48.838;10.112;2023-03-23T08:57:34;15.20;99.90
17762;DHT22;9005;48.838;10.112;2023-03-23T09:00:04;15.40;99.10
17762;DHT22;9005;48.838;10.112;2023-03-23T09:02:40;15.60;95.80
17762;DHT22;9005;48.838;10.112;2023-03-23T09:05:07;15.70;95.90
17762;DHT22;9005;48.838;10.112;2023-03-23T09:59:51;15.10;99.90
17762;DHT22;9005;48.838;10.112;2023-03-23T10:02:22;15.10;99.90
17762;DHT22;9005;48.838;10.112;2023-03-23T10:04:55;15.00;99.90
17762;DHT22;9005;48.838;10.112;2023-03-23T10:07:25;15.00;99.90
17762;DHT22;9005;48.838;10.112;2023-03-23T10:09:55;14.90;99.90
17762;DHT22;9005;48.838;10.112;2023-03-23T10:12:29;14.80;99.90
17762;DHT22;9005;48.838;10.112;2023-03-23T10:15:09;14.90;99.90
17762;DHT22;9005;48.838;10.112;2023-03-23T10:17:45;14.90;99.90
17762;DHT22;9005;48.838;10.112;2023-03-23T10:20:24;14.90;99.90
17762;DHT22;9005;48.838;10.112;2023-03-23T10:23:00;15.00;99.90
17762;DHT22;9005;48.838;10.112;2023-03-23T10:25:31;15.00;99.90
17762;DHT22;9005;48.838;10.112;2023-03-23T10:28:04;15.10;99.90
17762;DHT22;9005;48.838;10.112;2023-03-23T10:30:34;15.00;99.90
17762;DHT22;9005;48.838;10.112;2023-03-23T10:33:05;15.00;99.90
17762;DHT22;9005;48.838;10.112;2023-03-23T10:35:36;14.90;99.90
17762;DHT22;9005;48.838;10.112;2023-03-23T10:38:13;14.90;99.90
17762;DHT22;9005;48.838;10.112;2023-03-23T10:40:48;14.90;99.90
17762;DHT22;9005;48.838;10.112;2023-03-23T10:43:16;14.90;99.90
17762;DHT22;9005;48.838;10.112;2023-03-23T10:45:45;15.00;99.90
17762;DHT22;9005;48.838;10.112;2023-03-23T10:48:17;14.90;99.90
17762;DHT22;9005;48.838;10.112;2023-03-23T10:50:50;14.90;99.90
17762;DHT22;9005;48.838;10.112;2023-03-23T10:53:21;14.80;99.90
17762;DHT22;9005;48.838;10.112;2023-03-23T10:55:50;14.80;99.90
17762;DHT22;9005;48.838;10.112;2023-03-23T10:58:23;14.80;99.90
17762;DHT22;9005;48.838;10.112;2023-03-23T11:00:50;14.70;99.90
17762;DHT22;9005;48.838;10.112;2023-03-23T11:03:25;14.70;99.90
17762;DHT22;9005;48.838;10.112;2023-03-23T11:05:57;14.80;99.90
17762;DHT22;9005;48.838;10.112;2023-03-23T11:08:27;14.70;99.90
17762;DHT22;9005;48.838;10.112;2023-03-23T11:10:58;14.80;99.90
17762;DHT22;9005;48.838;10.112;2023-03-23T11:13:29;14.80;99.90
17762;DHT22;9005;48.838;10.112;2023-03-23T11:15:57;14.90;99.90
17762;DHT22;9005;48.838;10.112;2023-03-23T11:18:26;15.00;99.90
17762;DHT22;9005;48.838;10.112;2023-03-23T11:20:57;15.00;99.90
17762;DHT22;9005;48.838;10.112;2023-03-23T11:23:28;14.90;99.90
17762;DHT22;9005;48.838;10.112;2023-03-23T11:26:02;14.90;99.90
17762;DHT22;9005;48.838;10.112;2023-03-23T11:28:32;14.70;99.90
17762;DHT22;9005;48.838;10.112;2023-03-23T11:31:02;14.60;99.90
17762;DHT22;9005;48.838;10.112;2023-03-23T11:33:30;14.60;99.90
17762;DHT22;9005;48.838;10.112;2023-03-23T11:36:00;14.70;99.90
17762;DHT22;9005;48.838;10.112;2023-03-23T11:38:27;14.70;99.90
17762;DHT22;9005;48.838;10.112;2023-03-23T11:40:54;14.70;99.90
17762;DHT22;9005;48.838;10.112;2023-03-23T11:43:22;14.90;99.90
17762;DHT22;9005;48.838;10.112;2023-03-23T11:45:58;14.90;99.90
17762;DHT22;9005;48.838;10.112;2023-03-23T11:48:30;15.00;99.90
17762;DHT22;9005;48.838;10.112;2023-03-23T11:51:04;15.20;99.90
17762;DHT22;9005;48.838;10.112;2023-03-23T11:53:41;15.50;99.90
17762;DHT22;9005;48.838;10.112;2023-03-23T11:56:15;15.50;99.90
17762;DHT22;9005;48.838;10.112;2023-03-23T11:58:44;15.30;99.90
17762;DHT22;9005;48.838;10.112;2023-03-23T12:01:20;15.40;99.90
17762;DHT22;9005;48.838;10.112;2023-03-23T12:04:19;15.60;99.90
17762;DHT22;9005;48.838;10.112;2023-03-23T12:06:55;15.80;99.90
17762;DHT22;9005;48.838;10.112;2023-03-23T12:09:39;16.30;99.90
17762;DHT22;9005;48.838;10.112;2023-03-23T12:12:16;16.40;99.90
17762;DHT22;9005;48.838;10.112;2023-03-23T12:14:51;16.20;99.90
17762;DHT22;9005;48.838;10.112;2023-03-23T12:17:29;16.20;99.90
17762;DHT22;9005;48.838;10.112;2023-03-23T12:20:10;16.30;99.90
17762;DHT22;9005;48.838;10.112;2023-03-23T12:22:51;16.50;99.90
17762;DHT22;9005;48.838;10.112;2023-03-23T12:25:38;16.60;99.90
17762;DHT22;9005;48.838;10.112;2023-03-23T12:28:14;16.60;99.90
17762;DHT22;9005;48.838;10.112;2023-03-23T12:30:49;16.70;99.90
17762;DHT22;9005;48.838;10.112;2023-03-23T12:33:23;16.60;99.90
17762;DHT22;9005;48.838;10.112;2023-03-23T12:36:03;16.30;99.90
17762;DHT22;9005;48.838;10.112;2023-03-23T12:38:48;16.00;99.90
17762;DHT22;9005;48.838;10.112;2023-03-23T12:41:20;15.70;99.90
17762;DHT22;9005;48.838;10.112;2023-03-23T12:43:52;15.50;99.90
17762;DHT22;9005;48.838;10.112;2023-03-23T12:46:37;15.70;99.90
17762;DHT22;9005;48.838;10.112;2023-03-23T12:49:07;16.00;99.90
17762;DHT22;9005;48.838;10.112;2023-03-23T12:51:41;16.20;99.90
17762;DHT22;9005;48.838;10.112;2023-03-23T12:54:14;16.50;99.90
17762;DHT22;9005;48.838;10.112;2023-03-23T12:56:48;16.60;99.90
17762;DHT22;9005;48.838;10.112;2023-03-23T12:59:26;16.60;99.90
17762;DHT22;9005;48.838;10.112;2023-03-23T13:02:01;16.70;99.90
17762;DHT22;9005;48.838;10.112;2023-03-23T13:04:35;16.50;99.90
17762;DHT22;9005;48.838;10.112;2023-03-23T13:07:06;16.20;99.90
17762;DHT22;9005;48.838;10.112;2023-03-23T13:09:44;16.00;99.90
17762;DHT22;9005;48.838;10.112;2023-03-23T13:12:14;16.00;99.90
17762;DHT22;9005;48.838;10.112;2023-03-23T13:14:47;15.90;99.90
17762;DHT22;9005;48.838;10.112;2023-03-23T13:17:27;16.10;99.90
17762;DHT22;9005;48.838;10.112;2023-03-23T13:20:30;16.10;99.90
17762;DHT22;9005;48.838;10.112;2023-03-23T13:23:02;16.10;99.90
17762;DHT22;9005;48.838;10.112;2023-03-23T13:28:27;16.10;99.90
17762;DHT22;9005;48.838;10.112;2023-03-23T13:30:56;16.20;99.90
17762;DHT22;9005;48.838;10.112;2023-03-23T13:33:24;16.20;99.90
17762;DHT22;9005;48.838;10.112;2023-03-23T13:35:51;16.10;99.90
17762;DHT22;9005;48.838;10.112;2023-03-23T13:38:20;16.10;99.90
17762;DHT22;9005;48.838;10.112;2023-03-23T13:40:50;16.10;99.90
17762;DHT22;9005;48.838;10.112;2023-03-23T13:43:26;16.30;99.90
17762;DHT22;9005;48.838;10.112;2023-03-23T13:45:54;16.30;99.90
17762;DHT22;9005;48.838;10.112;2023-03-23T13:48:24;16.30;99.90
17762;DHT22;9005;48.838;10.112;2023-03-23T13:50:54;16.30;99.90
17762;DHT22;9005;48.838;10.112;2023-03-23T13:53:25;16.40;99.90
17762;DHT22;9005;48.838;10.112;2023-03-23T13:56:07;16.50;99.90
17762;DHT22;9005;48.838;10.112;2023-03-23T13:58:45;16.50;99.90
17762;DHT22;9005;48.838;10.112;2023-03-23T14:01:16;16.50;99.90
17762;DHT22;9005;48.838;10.112;2023-03-23T14:03:46;16.60;99.90
17762;DHT22;9005;48.838;10.112;2023-03-23T14:06:17;16.70;99.90
17762;DHT22;9005;48.838;10.112;2023-03-23T14:08:45;16.80;99.90
17762;DHT22;9005;48.838;10.112;2023-03-23T14:11:19;16.80;99.90
17762;DHT22;9005;48.838;10.112;2023-03-23T14:13:51;16.80;99.90
17762;DHT22;9005;48.838;10.112;2023-03-23T14:16:25;16.60;99.90
17762;DHT22;9005;48.838;10.112;2023-03-23T14:18:55;16.50;99.90
17762;DHT22;9005;48.838;10.112;2023-03-23T14:21:30;16.30;99.90
17762;DHT22;9005;48.838;10.112;2023-03-23T14:24:00;16.30;99.90
17762;DHT22;9005;48.838;10.112;2023-03-23T14:26:29;16.20;99.90
17762;DHT22;9005;48.838;10.112;2023-03-23T14:28:59;16.20;99.90
17762;DHT22;9005;48.838;10.112;2023-03-23T14:31:27;16.10;99.90
17762;DHT22;9005;48.838;10.112;2023-03-23T14:33:55;16.10;99.90
17762;DHT22;9005;48.838;10.112;2023-03-23T14:36:24;16.10;99.90
17762;DHT22;9005;48.838;10.112;2023-03-23T14:39:01;16.10;99.90
17762;DHT22;9005;48.838;10.112;2023-03-23T14:41:30;16.10;99.90
17762;DHT22;9005;48.838;10.112;2023-03-23T14:44:00;16.10;99.90
17762;DHT22;9005;48.838;10.112;2023-03-23T14:46:27;16.10;99.90
17762;DHT22;9005;48.838;10.112;2023-03-23T14:48:56;16.10;99.90
17762;DHT22;9005;48.838;10.112;2023-03-23T14:51:25;16.00;99.90
17762;DHT22;9005;48.838;10.112;2023-03-23T14:53:53;16.00;99.90
17762;DHT22;9005;48.838;10.112;2023-03-23T14:56:22;16.00;99.90
17762;DHT22;9005;48.838;10.112;2023-03-23T14:59:03;15.90;99.90
17762;DHT22;9005;48.838;10.112;2023-03-23T15:01:31;15.90;99.90
17762;DHT22;9005;48.838;10.112;2023-03-23T15:04:00;15.90;99.90
17762;DHT22;9005;48.838;10.112;2023-03-23T15:06:31;16.00;99.90
17762;DHT22;9005;48.838;10.112;2023-03-23T15:09:00;16.00;99.90
17762;DHT22;9005;48.838;10.112;2023-03-23T15:11:30;16.00;99.90
17762;DHT22;9005;48.838;10.112;2023-03-23T15:14:02;16.00;99.90
17762;DHT22;9005;48.838;10.112;2023-03-23T15:16:31;16.10;99.90
17762;DHT22;9005;48.838;10.112;2023-03-23T15:19:00;16.10;99.90
17762;DHT22;9005;48.838;10.112;2023-03-23T15:21:29;16.10;99.90
17762;DHT22;9005;48.838;10.112;2023-03-23T15:23:56;16.10;99.90
17762;DHT22;9005;48.838;10.112;2023-03-23T15:26:30;16.00;99.90
17762;DHT22;9005;48.838;10.112;2023-03-23T15:29:10;16.00;99.90
17762;DHT22;9005;48.838;10.112;2023-03-23T15:31:40;16.00;99.90
17762;DHT22;9005;48.838;10.112;2023-03-23T15:34:15;16.00;99.90
17762;DHT22;9005;48.838;10.112;2023-03-23T15:36:42;16.00;99.90
17762;DHT22;9005;48.838;10.112;2023-03-23T15:39:10;15.90;99.90
17762;DHT22;9005;48.838;10.112;2023-03-23T15:41:46;15.90;99.90
17762;DHT22;9005;48.838;10.112;2023-03-23T15:44:26;15.80;99.90
17762;DHT22;9005;48.838;10.112;2023-03-23T15:47:03;15.80;99.90
17762;DHT22;9005;48.838;10.112;2023-03-23T15:49:30;15.80;99.90
17762;DHT22;9005;48.838;10.112;2023-03-23T15:51:57;15.70;99.90
17762;DHT22;9005;48.838;10.112;2023-03-23T15:54:24;15.70;99.90
17762;DHT22;9005;48.838;10.112;2023-03-23T15:56:55;15.70;99.90
17762;DHT22;9005;48.838;10.112;2023-03-23T15:59:23;15.70;99.90
17762;DHT22;9005;48.838;10.112;2023-03-23T16:01:50;15.60;99.90
17762;DHT22;9005;48.838;10.112;2023-03-23T16:04:18;15.60;99.90
17762;DHT22;9005;48.838;10.112;2023-03-23T16:06:46;15.60;99.90
17762;DHT22;9005;48.838;10.112;2023-03-23T16:09:14;15.50;99.90
17762;DHT22;9005;48.838;10.112;2023-03-23T16:11:41;15.50;99.90
17762;DHT22;9005;48.838;10.112;2023-03-23T16:14:08;15.50;99.90
17762;DHT22;9005;48.838;10.112;2023-03-23T16:16:40;15.40;99.90
17762;DHT22;9005;48.838;10.112;2023-03-23T16:19:08;15.40;99.90
17762;DHT22;9005;48.838;10.112;2023-03-23T16:21:37;15.40;99.90
17762;DHT22;9005;48.838;10.112;2023-03-23T16:24:05;15.40;99.90
17762;DHT22;9005;48.838;10.112;2023-03-23T16:26:32;15.40;99.90
17762;DHT22;9005;48.838;10.112;2023-03-23T16:28:59;15.40;99.90
17762;DHT22;9005;48.838;10.112;2023-03-23T16:31:27;15.40;99.90
17762;DHT22;9005;48.838;10.112;2023-03-23T16:33:55;15.40;99.90
17762;DHT22;9005;48.838;10.112;2023-03-23T16:36:22;15.30;99.90
17762;DHT22;9005;48.838;10.112;2023-03-23T16:38:48;15.30;99.90
17762;DHT22;9005;48.838;10.112;2023-03-23T16:41:16;15.30;99.90
17762;DHT22;9005;48.838;10.112;2023-03-23T16:43:42;15.30;99.90
17762;DHT22;9005;48.838;10.112;2023-03-23T16:46:10;15.20;99.90
17762;DHT22;9005;48.838;10.112;2023-03-23T16:51:06;15.20;99.90
17762;DHT22;9005;48.838;10.112;2023-03-23T16:53:33;15.20;99.90
17762;DHT22;9005;48.838;10.112;2023-03-23T16:56:00;15.10;99.90
17762;DHT22;9005;48.838;10.112;2023-03-23T16:58:27;15.10;99.90
17762;DHT22;9005;48.838;10.112;2023-03-23T17:00:54;15.10;99.90
17762;DHT22;9005;48.838;10.112;2023-03-23T17:03:21;15.10;99.90